メインページ
METAR-TAF:

METAR-TAF

空港 :

ジブラルタル, ジブラルタル

ジブラルタル国際空港

緯度: 36-09N, 経度: 005-21W, 海抜: 5m

現時点の気象観測

当レポートは16分前の04:50(UTC)に作成
西の風 3kt
気温 18°C
湿度 94%
気圧 1021 hPa
視程10km以上
1,500メートル以下は雲なし、積乱雲なし

METAR: LXGB 210450Z 27003KT CAVOK 18/17 Q1021

時間: 07:06 (05:06 UTC)

予報

当レポートは12時間49分前の16:17(UTC)に作成
予報は20日の 18時(UTC)から 20日の 22時(UTC)まで有効
西/南西の風 10kt
視程10km以上
高度2500ftの雲はほとんどない

TAF: LXGB 201617Z 2018/2022 25010KT 9999 FEW025

4,000以上の空港の気象観測と天気予報(METAR報とTAF報)

利用可能な観測所は地図上に黄色い丸と赤い丸で示す。

丸の上にカーソルを重ねると観測所名を参照できる。

次にクリックすると気象観測と天気予報を参照できる。

マップの切り替え:黒色「×」印の緑ボタンをクリックして拡大、「-」印の緑ボタンをクリックして縮小、緑色の三角印をクリックして隣りの地図に切り替え


METAR-TAF: